Time;durP1;ratioP1;P1;durP2;ratioP2;P2;SDS_P1;SDS_P2;PMS_P1;PMS_P2;Temp;Humidity;BMP_temperature;BMP_pressure;BME280_temperature;BME280_humidity;BME280_pressure;Samples;Min_cycle;Max_cycle;Signal;HPM_P1;HPM_P2
2023/09/01 00:00:17;;;;;;;2.00;1.50;;;16.50;99.90;;;;;;5036279;28;20185;-85
2023/09/01 00:02:56;;;;;;;1.30;1.20;;;16.60;99.90;;;;;;5041489;28;20192;-85
2023/09/01 00:05:24;;;;;;;3.78;1.60;;;16.60;99.90;;;;;;5037331;28;20198;-85
2023/09/01 00:07:51;;;;;;;2.08;1.63;;;16.60;99.90;;;;;;5018990;28;20200;-85
2023/09/01 00:10:19;;;;;;;2.30;1.65;;;16.70;99.90;;;;;;5036450;28;20245;-85
2023/09/01 00:12:47;;;;;;;3.13;1.83;;;16.70;99.90;;;;;;5027515;28;20225;-86
2023/09/01 00:15:15;;;;;;;5.18;1.90;;;16.70;99.90;;;;;;5036244;28;20194;-85
2023/09/01 00:17:43;;;;;;;2.88;1.20;;;16.50;99.90;;;;;;5034955;28;20277;-85
2023/09/01 00:20:11;;;;;;;2.42;1.23;;;16.30;99.90;;;;;;5036298;28;20202;-85
2023/09/01 00:22:38;;;;;;;2.67;1.20;;;16.30;99.90;;;;;;5036415;28;20193;-84
2023/09/01 00:25:06;;;;;;;2.08;1.10;;;16.20;99.90;;;;;;5043747;28;20202;-85
2023/09/01 00:27:34;;;;;;;2.50;1.05;;;16.30;99.90;;;;;;5039322;28;20185;-86
2023/09/01 00:30:02;;;;;;;2.08;1.17;;;16.10;99.90;;;;;;5030714;28;20672;-85
2023/09/01 00:32:29;;;;;;;1.45;1.10;;;16.10;99.90;;;;;;5027826;28;20746;-85
2023/09/01 00:34:57;;;;;;;2.17;1.20;;;16.00;99.90;;;;;;5038852;28;20217;-85
2023/09/01 00:37:25;;;;;;;2.53;1.00;;;15.90;99.90;;;;;;5018136;28;20200;-85
2023/09/01 00:39:52;;;;;;;0.95;0.82;;;15.90;99.90;;;;;;5022744;28;20241;-84
2023/09/01 00:42:20;;;;;;;2.30;0.73;;;16.10;99.90;;;;;;5032600;28;20284;-85
2023/09/01 00:44:48;;;;;;;2.47;1.00;;;16.00;99.90;;;;;;5027645;28;20635;-86
2023/09/01 00:47:17;;;;;;;1.55;0.93;;;15.90;99.90;;;;;;5044274;28;20304;-85
2023/09/01 00:49:45;;;;;;;1.83;0.70;;;16.00;99.90;;;;;;5038360;28;20690;-85
2023/09/01 00:52:13;;;;;;;1.92;0.88;;;16.00;99.90;;;;;;5039199;28;20216;-85
2023/09/01 00:54:40;;;;;;;2.53;1.10;;;16.10;99.90;;;;;;5032181;28;20186;-85
2023/09/01 00:57:08;;;;;;;1.60;0.80;;;15.90;99.90;;;;;;5035909;28;20659;-85
2023/09/01 00:59:37;;;;;;;2.60;1.00;;;15.90;99.90;;;;;;5042282;28;20250;-86
2023/09/01 01:02:05;;;;;;;0.95;0.82;;;15.90;99.90;;;;;;5039703;28;20214;-85
2023/09/01 01:04:33;;;;;;;1.67;0.80;;;16.00;99.90;;;;;;5042112;28;20639;-85
2023/09/01 01:07:06;;;;;;;2.90;0.95;;;16.00;99.90;;;;;;5034170;28;20204;-86
2023/09/01 01:09:56;;;;;;;1.00;0.90;;;16.00;99.90;;;;;;5039254;28;20193;-84
2023/09/01 01:12:43;;;;;;;1.85;1.20;;;16.00;99.90;;;;;;5040755;28;20725;-85
2023/09/01 01:15:14;;;;;;;1.00;0.90;;;16.00;99.90;;;;;;5039337;28;20192;-85
2023/09/01 01:17:45;;;;;;;3.40;1.20;;;16.10;99.90;;;;;;5033230;28;20198;-86
2023/09/01 01:20:34;;;;;;;3.20;2.67;;;16.20;99.90;;;;;;5036375;28;20214;-86
2023/09/01 01:23:16;;;;;;;3.78;2.53;;;16.00;99.90;;;;;;5040298;28;20204;-85
2023/09/01 01:25:45;;;;;;;5.13;3.08;;;15.80;99.90;;;;;;5039116;28;20185;-85
2023/09/01 01:28:13;;;;;;;2.85;1.50;;;15.80;99.90;;;;;;5032798;28;20276;-85
2023/09/01 01:30:42;;;;;;;3.28;1.75;;;15.80;99.90;;;;;;5036980;28;20238;-86
2023/09/01 01:33:34;;;;;;;1.58;1.27;;;15.70;99.90;;;;;;5039780;28;20178;-85
2023/09/01 01:36:14;;;;;;;4.18;1.30;;;15.70;99.90;;;;;;5047105;28;20193;-85
2023/09/01 01:38:45;;;;;;;1.08;0.98;;;15.70;99.90;;;;;;5037882;28;20217;-86
2023/09/01 01:41:32;;;;;;;2.17;1.20;;;15.70;99.90;;;;;;5044991;28;20193;-85
2023/09/01 01:44:03;;;;;;;2.63;1.10;;;15.60;99.90;;;;;;5037977;28;20242;-86
2023/09/01 01:46:32;;;;;;;1.05;0.95;;;15.70;99.90;;;;;;5037225;28;20181;-86
2023/09/01 01:49:00;;;;;;;3.83;1.13;;;15.60;99.90;;;;;;5039537;27;20243;-86
2023/09/01 01:51:28;;;;;;;0.93;0.80;;;15.60;99.90;;;;;;5040207;28;20674;-85
2023/09/01 01:53:55;;;;;;;2.75;1.40;;;15.50;99.90;;;;;;5027683;28;20205;-85
2023/09/01 01:56:23;;;;;;;2.45;1.20;;;15.30;99.90;;;;;;5034553;28;20281;-86
2023/09/01 01:58:50;;;;;;;1.83;1.30;;;15.30;99.90;;;;;;5027153;28;20538;-86
2023/09/01 02:01:18;;;;;;;1.35;1.25;;;15.30;99.90;;;;;;5020772;28;20667;-86
2023/09/01 02:03:46;;;;;;;1.52;1.00;;;15.30;99.90;;;;;;5023062;28;20233;-86
2023/09/01 02:06:14;;;;;;;1.30;1.00;;;15.30;99.90;;;;;;5038230;28;20192;-86
2023/09/01 02:08:41;;;;;;;2.78;1.27;;;15.20;99.90;;;;;;5038045;28;20190;-85
2023/09/01 02:11:09;;;;;;;3.35;1.10;;;15.00;99.90;;;;;;5044666;28;20671;-85
2023/09/01 02:13:36;;;;;;;1.45;0.90;;;15.10;99.90;;;;;;5022923;28;20229;-85
2023/09/01 02:16:05;;;;;;;1.95;0.93;;;15.10;99.90;;;;;;5039536;28;20193;-86
2023/09/01 02:18:33;;;;;;;1.27;0.90;;;15.20;99.90;;;;;;5036531;28;20197;-86
2023/09/01 02:21:01;;;;;;;2.78;1.20;;;15.00;99.90;;;;;;5028100;28;20190;-84
2023/09/01 02:23:29;;;;;;;2.85;1.05;;;14.90;99.90;;;;;;5018052;28;20194;-85
2023/09/01 02:25:56;;;;;;;3.22;0.80;;;15.00;99.90;;;;;;5042363;28;20220;-86
2023/09/01 02:28:24;;;;;;;3.38;0.93;;;15.00;99.90;;;;;;5041799;28;20262;-86
2023/09/01 02:30:52;;;;;;;1.33;1.20;;;14.90;99.90;;;;;;5033534;28;20198;-85
2023/09/01 02:33:19;;;;;;;3.15;1.10;;;15.00;99.90;;;;;;5020896;28;20209;-85
2023/09/01 02:35:48;;;;;;;1.20;1.02;;;14.90;99.90;;;;;;5037139;27;20269;-86
2023/09/01 02:38:16;;;;;;;2.70;1.20;;;14.90;99.90;;;;;;5038306;28;20273;-86
2023/09/01 02:40:44;;;;;;;1.33;1.08;;;14.80;99.90;;;;;;5010346;28;20232;-87
2023/09/01 02:43:11;;;;;;;2.80;1.23;;;14.80;99.90;;;;;;5038335;28;20217;-86
2023/09/01 02:45:39;;;;;;;3.03;1.10;;;14.80;99.90;;;;;;5032329;28;20174;-87
2023/09/01 02:48:06;;;;;;;2.95;1.30;;;14.70;99.90;;;;;;5030252;28;20817;-86
2023/09/01 02:50:34;;;;;;;2.75;1.40;;;14.60;99.90;;;;;;5038555;28;20290;-87
2023/09/01 02:53:04;;;;;;;3.10;1.20;;;14.60;99.90;;;;;;5036180;28;20711;-86
2023/09/01 02:55:32;;;;;;;2.17;1.40;;;14.50;99.90;;;;;;5024883;28;20744;-86
2023/09/01 02:57:59;;;;;;;3.50;1.58;;;14.50;99.90;;;;;;5021452;28;20221;-86
2023/09/01 03:00:28;;;;;;;2.63;1.45;;;14.70;99.90;;;;;;5019457;28;20205;-86
2023/09/01 03:02:56;;;;;;;2.72;1.10;;;14.60;99.90;;;;;;5029692;28;20668;-86
2023/09/01 03:05:25;;;;;;;2.78;1.48;;;14.70;99.90;;;;;;5034493;28;20198;-87
2023/09/01 03:07:53;;;;;;;2.20;2.00;;;14.80;99.90;;;;;;5039662;28;20264;-87
2023/09/01 03:10:21;;;;;;;3.15;2.22;;;14.80;99.90;;;;;;5030628;28;20555;-86
2023/09/01 03:12:49;;;;;;;5.38;2.20;;;14.80;99.90;;;;;;5036755;28;20320;-86
2023/09/01 03:15:18;;;;;;;4.88;2.67;;;14.70;99.90;;;;;;5026464;28;20230;-86
2023/09/01 03:17:45;;;;;;;4.22;2.40;;;14.70;99.90;;;;;;5036396;28;20190;-87
2023/09/01 03:20:13;;;;;;;5.03;2.10;;;14.60;99.90;;;;;;5033375;28;20233;-87
2023/09/01 03:22:41;;;;;;;4.63;2.15;;;14.60;99.90;;;;;;5031129;28;20189;-87
2023/09/01 03:25:09;;;;;;;5.13;2.28;;;14.60;99.90;;;;;;5016851;28;20259;-87
2023/09/01 03:27:39;;;;;;;5.20;2.38;;;14.70;99.90;;;;;;5027309;28;20190;-87
2023/09/01 03:30:10;;;;;;;2.58;1.83;;;14.70;99.90;;;;;;5030183;28;20202;-87
2023/09/01 03:32:39;;;;;;;4.78;2.13;;;14.70;99.90;;;;;;5016534;28;20273;-87
2023/09/01 03:35:07;;;;;;;3.30;2.20;;;14.70;99.90;;;;;;5026797;28;20212;-86
2023/09/01 03:37:36;;;;;;;5.18;2.10;;;14.70;99.90;;;;;;5032759;28;20205;-86
2023/09/01 03:40:10;;;;;;;3.28;2.50;;;14.80;99.90;;;;;;5040374;28;20709;-86
2023/09/01 03:42:39;;;;;;;3.97;2.60;;;14.70;99.90;;;;;;5029142;28;20213;-86
2023/09/01 03:45:07;;;;;;;5.32;2.70;;;14.60;99.90;;;;;;5040728;28;20189;-86
2023/09/01 03:47:35;;;;;;;4.47;2.92;;;14.60;99.90;;;;;;5032567;28;20185;-84
2023/09/01 03:50:03;;;;;;;3.92;2.72;;;14.50;99.90;;;;;;5039790;28;20948;-86
2023/09/01 03:52:31;;;;;;;4.05;2.75;;;14.50;99.90;;;;;;5035036;27;20197;-85
2023/09/01 03:54:59;;;;;;;5.25;3.28;;;14.50;99.90;;;;;;5023754;28;20245;-86
2023/09/01 03:57:26;;;;;;;5.40;3.88;;;14.50;99.90;;;;;;5035618;28;20185;-85
2023/09/01 03:59:54;;;;;;;8.32;3.72;;;14.60;99.90;;;;;;5037490;28;20254;-85
2023/09/01 04:02:22;;;;;;;7.10;4.05;;;14.50;99.90;;;;;;5039013;28;20183;-86
2023/09/01 04:04:49;;;;;;;15.23;5.05;;;14.50;99.90;;;;;;5036713;28;20182;-86
2023/09/01 04:07:17;;;;;;;7.25;4.75;;;14.50;99.90;;;;;;5036442;28;20181;-85
2023/09/01 04:09:44;;;;;;;4.90;3.80;;;14.40;99.90;;;;;;5038003;28;20524;-86
2023/09/01 04:12:12;;;;;;;9.30;4.63;;;14.40;99.90;;;;;;5029715;28;20296;-86
2023/09/01 04:14:39;;;;;;;5.47;3.78;;;14.40;99.90;;;;;;5043778;28;20194;-85
2023/09/01 04:17:07;;;;;;;6.00;4.00;;;14.50;99.90;;;;;;5028346;28;20194;-86
2023/09/01 04:19:35;;;;;;;5.93;4.65;;;14.50;99.90;;;;;;5043315;28;20232;-85
2023/09/01 04:22:03;;;;;;;9.05;5.13;;;14.40;99.90;;;;;;5040759;28;20190;-87
2023/09/01 04:24:30;;;;;;;6.00;4.68;;;14.40;99.90;;;;;;5043438;28;20655;-86
2023/09/01 04:26:58;;;;;;;8.90;4.60;;;14.40;99.90;;;;;;5037232;28;20194;-85
2023/09/01 04:29:26;;;;;;;9.50;4.32;;;14.50;99.90;;;;;;5036541;28;20197;-84
2023/09/01 04:31:54;;;;;;;5.63;4.15;;;14.50;99.90;;;;;;5019121;28;20284;-85
2023/09/01 04:34:22;;;;;;;7.53;4.63;;;14.50;99.90;;;;;;5035604;28;20209;-85
2023/09/01 04:36:50;;;;;;;7.68;4.10;;;14.50;99.90;;;;;;5036384;28;20742;-85
2023/09/01 04:39:18;;;;;;;5.20;4.03;;;14.50;99.90;;;;;;5021517;28;20700;-85
2023/09/01 04:41:46;;;;;;;5.82;4.68;;;14.40;99.90;;;;;;5023831;28;20194;-85
2023/09/01 04:44:16;;;;;;;8.38;4.60;;;14.40;99.90;;;;;;5036030;28;20270;-86
2023/09/01 04:46:44;;;;;;;9.43;5.35;;;14.40;99.90;;;;;;5032980;28;20200;-85
2023/09/01 04:49:12;;;;;;;4.13;3.55;;;14.40;99.90;;;;;;5037905;28;20182;-85
2023/09/01 04:51:40;;;;;;;6.03;4.47;;;14.30;99.90;;;;;;5032471;28;20195;-85
2023/09/01 04:54:07;;;;;;;5.57;3.85;;;14.30;99.90;;;;;;5036475;28;20218;-85
2023/09/01 04:56:35;;;;;;;6.22;5.00;;;14.30;99.90;;;;;;5036300;28;20197;-81
2023/09/01 04:59:02;;;;;;;7.10;5.00;;;14.40;99.90;;;;;;5038958;28;20193;-81
2023/09/01 05:01:30;;;;;;;8.07;5.10;;;14.40;99.90;;;;;;5030259;28;20209;-82
2023/09/01 05:03:58;;;;;;;6.53;4.90;;;14.60;99.90;;;;;;5040526;28;20185;-83
2023/09/01 05:06:25;;;;;;;7.90;4.93;;;14.60;99.90;;;;;;5038716;28;20682;-84
2023/09/01 05:08:53;;;;;;;10.15;5.40;;;14.60;99.90;;;;;;5037181;28;20206;-83
2023/09/01 05:11:21;;;;;;;5.95;4.72;;;14.40;99.90;;;;;;5014803;28;20201;-84
2023/09/01 05:13:49;;;;;;;7.63;4.75;;;14.50;99.90;;;;;;5039075;28;20226;-83
2023/09/01 05:16:16;;;;;;;8.60;4.80;;;14.50;99.90;;;;;;5035067;28;20185;-84
2023/09/01 05:18:44;;;;;;;7.07;5.00;;;14.50;99.90;;;;;;5029984;28;20242;-83
2023/09/01 05:21:11;;;;;;;7.43;5.47;;;14.50;99.90;;;;;;5044110;28;20219;-84
2023/09/01 05:23:40;;;;;;;8.82;5.30;;;14.50;99.90;;;;;;5035524;28;20304;-84
2023/09/01 05:26:07;;;;;;;6.82;5.97;;;14.50;99.90;;;;;;5043024;28;20544;-84
2023/09/01 05:28:35;;;;;;;7.60;5.45;;;14.60;99.90;;;;;;5047428;28;20193;-84
2023/09/01 05:31:03;;;;;;;10.32;5.28;;;14.50;99.90;;;;;;5038516;28;20192;-83
2023/09/01 05:33:34;;;;;;;8.32;5.50;;;14.50;99.90;;;;;;5010043;28;20734;-83
2023/09/01 05:36:01;;;;;;;6.47;5.03;;;14.60;99.90;;;;;;5026441;28;20197;-83
2023/09/01 05:38:29;;;;;;;7.78;5.05;;;14.60;99.90;;;;;;5027250;28;20575;-83
2023/09/01 05:40:58;;;;;;;9.70;5.50;;;14.50;99.90;;;;;;5028810;28;20298;-83
2023/09/01 05:43:26;;;;;;;6.93;4.97;;;14.50;99.90;;;;;;5027515;28;20198;-83
2023/09/01 05:45:54;;;;;;;8.82;4.93;;;14.50;99.90;;;;;;5027522;28;20216;-83
2023/09/01 05:48:25;;;;;;;10.45;5.40;;;14.50;99.90;;;;;;5028260;28;20409;-83
2023/09/01 05:50:53;;;;;;;7.80;5.22;;;14.40;99.90;;;;;;5027359;28;20285;-83
2023/09/01 05:53:21;;;;;;;7.60;4.38;;;14.40;99.90;;;;;;5027941;28;20182;-84
2023/09/01 05:55:49;;;;;;;8.27;4.30;;;14.30;99.90;;;;;;5028472;27;20808;-83
2023/09/01 05:58:16;;;;;;;5.60;4.63;;;14.30;99.90;;;;;;5028451;28;20194;-84
2023/09/01 06:00:44;;;;;;;7.85;5.28;;;14.30;99.90;;;;;;5027141;28;20585;-83
2023/09/01 06:03:11;;;;;;;8.50;5.13;;;14.30;99.90;;;;;;5027213;28;20312;-83
2023/09/01 06:05:39;;;;;;;9.63;5.05;;;14.30;99.90;;;;;;5028293;28;20568;-84
2023/09/01 06:08:07;;;;;;;6.15;4.97;;;14.40;99.90;;;;;;5028242;28;20213;-84
2023/09/01 06:10:35;;;;;;;8.85;5.07;;;14.40;99.90;;;;;;5026761;28;20250;-83
2023/09/01 06:13:03;;;;;;;6.55;5.15;;;14.40;99.90;;;;;;5028123;28;20236;-84
2023/09/01 06:15:30;;;;;;;7.70;5.55;;;14.40;99.90;;;;;;5028240;28;20221;-84
2023/09/01 06:17:58;;;;;;;7.25;5.03;;;14.40;99.90;;;;;;5028145;28;20204;-83
2023/09/01 06:20:26;;;;;;;8.10;5.43;;;14.30;99.90;;;;;;5028096;28;20210;-84
2023/09/01 06:22:54;;;;;;;6.65;4.78;;;14.40;99.90;;;;;;5028170;28;20193;-84
2023/09/01 06:25:22;;;;;;;8.90;5.53;;;14.50;99.90;;;;;;5028232;28;20178;-83
2023/09/01 06:27:49;;;;;;;7.35;5.38;;;14.40;99.90;;;;;;5028240;28;20595;-83
2023/09/01 06:30:17;;;;;;;6.80;5.25;;;14.40;99.90;;;;;;5028333;28;20660;-84
2023/09/01 06:32:44;;;;;;;8.23;5.63;;;14.50;99.90;;;;;;5027273;28;20194;-84
2023/09/01 06:35:16;;;;;;;9.65;5.65;;;14.50;99.90;;;;;;5026481;28;20644;-83
2023/09/01 06:37:43;;;;;;;8.82;5.80;;;14.50;99.90;;;;;;5026466;28;20686;-84
2023/09/01 06:40:11;;;;;;;6.93;4.80;;;14.50;99.90;;;;;;5027775;28;20225;-83
2023/09/01 06:42:39;;;;;;;6.72;4.50;;;14.50;99.90;;;;;;5027726;28;20206;-83
2023/09/01 06:45:07;;;;;;;7.97;5.40;;;14.50;99.90;;;;;;5026271;28;20893;-83
2023/09/01 06:47:35;;;;;;;8.07;4.75;;;14.50;99.90;;;;;;5026367;28;20194;-84
2023/09/01 06:50:03;;;;;;;8.20;4.78;;;14.60;99.90;;;;;;5026210;28;20629;-83
2023/09/01 06:52:31;;;;;;;6.28;4.75;;;14.50;99.90;;;;;;5026864;28;20770;-84
2023/09/01 06:54:59;;;;;;;5.80;4.65;;;14.60;99.90;;;;;;5028598;28;20273;-84
2023/09/01 06:57:27;;;;;;;5.80;4.13;;;14.70;99.90;;;;;;5027806;28;20676;-83
2023/09/01 06:59:55;;;;;;;5.18;4.15;;;14.80;99.90;;;;;;5025951;28;20201;-83
2023/09/01 07:02:22;;;;;;;9.65;4.80;;;14.80;99.90;;;;;;5027482;28;20185;-83
2023/09/01 07:04:50;;;;;;;7.10;4.25;;;14.80;99.90;;;;;;5024922;28;20190;-83
2023/09/01 07:07:17;;;;;;;6.95;4.03;;;14.80;99.90;;;;;;5026239;28;20531;-84
2023/09/01 07:09:45;;;;;;;4.63;3.75;;;14.90;99.90;;;;;;5009574;28;20190;-84
2023/09/01 07:12:12;;;;;;;5.45;4.00;;;14.80;99.90;;;;;;5025912;28;20193;-84
2023/09/01 07:14:40;;;;;;;4.25;3.85;;;14.90;99.90;;;;;;5027613;28;20583;-84
2023/09/01 07:17:11;;;;;;;5.70;3.95;;;14.90;99.90;;;;;;5028300;28;20186;-83
2023/09/01 07:19:39;;;;;;;6.43;4.30;;;14.90;99.90;;;;;;5027841;27;20173;-83
2023/09/01 07:22:06;;;;;;;5.53;3.92;;;15.00;99.90;;;;;;5027277;28;20695;-83
2023/09/01 07:24:34;;;;;;;4.72;3.17;;;15.00;99.90;;;;;;5027155;28;20178;-83
2023/09/01 07:27:02;;;;;;;5.05;3.60;;;14.90;99.90;;;;;;5027110;28;20219;-83
2023/09/01 07:29:29;;;;;;;6.47;3.70;;;14.90;99.90;;;;;;5025577;28;20709;-83
2023/09/01 07:31:57;;;;;;;6.30;3.60;;;14.80;99.90;;;;;;5026967;28;20186;-84
2023/09/01 07:34:25;;;;;;;3.55;2.92;;;14.70;99.90;;;;;;5025533;28;20186;-84
2023/09/01 07:36:52;;;;;;;4.72;3.35;;;14.80;99.90;;;;;;5026839;28;20552;-84
2023/09/01 07:39:20;;;;;;;4.85;3.63;;;14.80;99.90;;;;;;5026897;27;20185;-84
2023/09/01 07:41:47;;;;;;;4.25;3.55;;;14.80;99.90;;;;;;5025515;28;20237;-84
2023/09/01 07:44:16;;;;;;;4.70;3.60;;;14.90;99.90;;;;;;5026273;28;20761;-84
2023/09/01 07:46:44;;;;;;;5.38;3.60;;;14.90;99.90;;;;;;5026828;28;20178;-83
2023/09/01 07:49:11;;;;;;;6.63;3.42;;;14.80;99.90;;;;;;5026835;28;20205;-84
2023/09/01 07:51:39;;;;;;;5.63;3.53;;;14.70;99.90;;;;;;5026707;28;20289;-84
2023/09/01 07:54:06;;;;;;;5.30;2.90;;;14.80;99.90;;;;;;5026650;28;20624;-84
2023/09/01 07:56:34;;;;;;;6.15;3.35;;;14.80;99.90;;;;;;5025511;28;20703;-83
2023/09/01 07:59:03;;;;;;;4.78;3.10;;;14.80;99.90;;;;;;5026634;28;20717;-84
2023/09/01 08:01:31;;;;;;;3.80;3.08;;;15.00;99.90;;;;;;5028423;28;20210;-84
2023/09/01 08:04:02;;;;;;;4.05;3.17;;;15.10;99.90;;;;;;5046376;28;20181;-84
2023/09/01 08:06:29;;;;;;;5.50;3.45;;;15.40;99.90;;;;;;5046369;28;20273;-84
2023/09/01 08:08:57;;;;;;;5.85;3.70;;;15.60;99.90;;;;;;5046370;28;20190;-84
2023/09/01 08:11:26;;;;;;;5.60;3.50;;;15.80;99.90;;;;;;5046413;28;20257;-84
2023/09/01 08:13:53;;;;;;;4.10;2.85;;;16.00;99.90;;;;;;5044884;28;20690;-84
2023/09/01 08:16:21;;;;;;;4.32;2.95;;;16.00;99.90;;;;;;5028235;28;20217;-84
2023/09/01 08:18:49;;;;;;;4.43;2.92;;;16.00;99.90;;;;;;5047100;28;20620;-84
2023/09/01 08:21:17;;;;;;;4.50;3.40;;;16.00;99.90;;;;;;5047054;28;21018;-84
2023/09/01 08:23:46;;;;;;;5.90;3.10;;;15.80;99.90;;;;;;5046328;28;20185;-84
2023/09/01 08:26:14;;;;;;;4.05;2.83;;;15.70;99.90;;;;;;5046215;28;20549;-84
2023/09/01 08:28:41;;;;;;;3.92;3.13;;;15.50;99.90;;;;;;5046215;28;20234;-84
2023/09/01 08:31:09;;;;;;;4.85;3.38;;;15.50;99.90;;;;;;5046124;28;20234;-83
2023/09/01 08:33:37;;;;;;;3.78;2.95;;;15.50;99.90;;;;;;5046071;28;20197;-84
2023/09/01 08:36:04;;;;;;;4.20;2.90;;;15.40;99.90;;;;;;5046039;28;20189;-84
2023/09/01 08:38:32;;;;;;;4.07;2.90;;;15.50;99.90;;;;;;5044518;28;20217;-84
2023/09/01 08:41:04;;;;;;;6.65;3.08;;;15.50;99.90;;;;;;5044592;28;20201;-84
2023/09/01 08:43:39;;;;;;;4.15;2.92;;;15.40;99.90;;;;;;5044770;28;20197;-84
2023/09/01 08:46:07;;;;;;;2.95;2.50;;;15.30;99.90;;;;;;5046738;28;20677;-83
2023/09/01 08:48:38;;;;;;;4.28;2.70;;;15.30;99.90;;;;;;5044956;28;20173;-83
2023/09/01 08:51:05;;;;;;;5.60;2.75;;;15.30;99.90;;;;;;5046364;28;20764;-84
2023/09/01 08:53:35;;;;;;;5.35;2.70;;;15.30;99.90;;;;;;5044610;28;20850;-84
2023/09/01 08:56:02;;;;;;;4.53;2.55;;;15.50;99.90;;;;;;5044790;28;20277;-84
2023/09/01 08:58:30;;;;;;;5.13;2.60;;;15.80;99.90;;;;;;5045787;28;20185;-84
2023/09/01 09:00:57;;;;;;;3.88;2.50;;;15.90;99.90;;;;;;5037551;28;20209;-84
2023/09/01 09:03:25;;;;;;;4.82;2.60;;;16.20;99.90;;;;;;5026039;28;20547;-84
2023/09/01 09:05:53;;;;;;;3.72;2.72;;;16.30;99.90;;;;;;5026437;28;20239;-83
2023/09/01 09:08:22;;;;;;;4.75;2.50;;;16.40;99.90;;;;;;5024665;28;20197;-84
2023/09/01 09:10:49;;;;;;;7.22;2.67;;;16.30;99.90;;;;;;5024603;28;20189;-83
2023/09/01 09:13:25;;;;;;;4.43;2.42;;;16.30;99.90;;;;;;5025422;28;20222;-83
2023/09/01 09:16:12;;;;;;;3.03;2.42;;;16.20;99.90;;;;;;5025709;28;20182;-84
2023/09/01 09:18:47;;;;;;;2.85;2.20;;;16.20;99.90;;;;;;5025802;28;20181;-83
2023/09/01 09:21:32;;;;;;;7.28;2.67;;;16.20;99.90;;;;;;5025606;28;20614;-83
2023/09/01 09:24:02;;;;;;;3.70;2.63;;;16.20;99.90;;;;;;5025554;28;20641;-83
2023/09/01 09:26:56;;;;;;;3.53;2.35;;;16.40;99.90;;;;;;5026138;28;20185;-83
2023/09/01 09:29:24;;;;;;;6.32;2.78;;;16.60;99.90;;;;;;5028956;28;20670;-83
2023/09/01 09:31:52;;;;;;;3.85;2.40;;;16.90;99.90;;;;;;5028768;28;20189;-83
2023/09/01 09:34:24;;;;;;;3.28;2.55;;;17.00;99.90;;;;;;5028317;28;20695;-84
2023/09/01 09:36:51;;;;;;;5.57;2.63;;;17.10;99.90;;;;;;5025034;28;20675;-83
2023/09/01 09:39:33;;;;;;;3.65;2.60;;;16.90;99.90;;;;;;5030171;28;20185;-84
2023/09/01 09:42:00;;;;;;;2.90;2.42;;;16.80;99.90;;;;;;5048749;28;20203;-81
2023/09/01 09:44:35;;;;;;;4.97;2.67;;;16.80;99.90;;;;;;5047445;28;20301;-84
2023/09/01 09:47:10;;;;;;;3.63;2.10;;;16.60;99.90;;;;;;5048037;28;20576;-84
2023/09/01 09:49:39;;;;;;;5.35;2.15;;;16.70;99.90;;;;;;5048665;28;20552;-84
2023/09/01 09:52:08;;;;;;;3.90;2.05;;;16.80;99.90;;;;;;5030830;28;20189;-84
2023/09/01 09:54:44;;;;;;;3.65;2.20;;;16.60;99.90;;;;;;5040807;28;20189;-84
2023/09/01 09:57:22;;;;;;;4.13;2.30;;;16.50;99.90;;;;;;5031168;28;20230;-84
2023/09/01 09:59:57;;;;;;;3.22;2.20;;;16.50;99.90;;;;;;5048239;28;20607;-83
2023/09/01 10:02:52;;;;;;;3.97;2.33;;;16.50;99.90;;;;;;5037122;28;20194;-84
2023/09/01 10:05:23;;;;;;;2.95;2.30;;;16.70;99.90;;;;;;5032559;28;20214;-84
2023/09/01 10:07:51;;;;;;;5.93;2.47;;;16.80;99.90;;;;;;5028462;28;20197;-84
2023/09/01 10:10:20;;;;;;;2.83;2.15;;;16.70;99.90;;;;;;5043457;28;20205;-84
2023/09/01 10:12:47;;;;;;;5.95;2.20;;;16.60;99.90;;;;;;5028059;28;20711;-84
2023/09/01 10:15:17;;;;;;;4.47;2.10;;;16.60;99.90;;;;;;5043760;28;20216;-84
2023/09/01 10:17:48;;;;;;;5.10;2.35;;;16.70;99.90;;;;;;5043700;28;20186;-84
2023/09/01 10:20:16;;;;;;;4.55;2.03;;;16.90;99.90;;;;;;5028286;28;20660;-83
2023/09/01 10:22:44;;;;;;;4.60;2.13;;;17.00;99.90;;;;;;5043309;28;20205;-84
2023/09/01 10:25:16;;;;;;;2.72;1.73;;;17.20;99.90;;;;;;5027961;28;20184;-84
2023/09/01 10:28:14;;;;;;;3.38;1.88;;;17.50;99.90;;;;;;5027991;28;20178;-84
2023/09/01 10:30:45;;;;;;;1.92;1.40;;;17.60;99.90;;;;;;5026771;28;20242;-84
2023/09/01 10:33:40;;;;;;;4.93;1.50;;;17.60;99.90;;;;;;5026567;28;20182;-84
2023/09/01 10:36:14;;;;;;;1.67;1.50;;;17.50;99.90;;;;;;5044057;28;20190;-84
2023/09/01 10:38:42;;;;;;;2.78;1.73;;;17.60;99.90;;;;;;5035344;28;20209;-84
2023/09/01 10:41:09;;;;;;;3.40;1.70;;;17.60;99.90;;;;;;5039380;28;20280;-84
2023/09/01 10:43:44;;;;;;;4.50;1.60;;;17.80;99.90;;;;;;5034167;28;20190;-84
2023/09/01 10:46:12;;;;;;;4.65;1.40;;;17.80;99.90;;;;;;5033498;28;20923;-83
2023/09/01 10:48:53;;;;;;;2.45;1.42;;;17.70;99.90;;;;;;5038979;28;20189;-84
2023/09/01 10:51:22;;;;;;;2.70;1.70;;;17.40;99.90;;;;;;5047451;28;20169;-84
2023/09/01 10:53:57;;;;;;;4.38;1.70;;;17.30;99.90;;;;;;5047445;28;20675;-85
2023/09/01 10:56:24;;;;;;;5.60;1.58;;;17.40;99.90;;;;;;5035790;28;20193;-84
2023/09/01 10:58:53;;;;;;;2.88;1.58;;;17.50;99.90;;;;;;5047396;28;20192;-84
2023/09/01 11:01:38;;;;;;;2.13;1.50;;;17.60;99.90;;;;;;5047144;28;20205;-84
2023/09/01 11:04:32;;;;;;;2.53;1.50;;;17.60;99.90;;;;;;5048188;28;20178;-84
2023/09/01 11:07:02;;;;;;;2.92;1.33;;;17.80;99.90;;;;;;5049189;27;20197;-84
2023/09/01 11:09:33;;;;;;;2.60;1.60;;;18.10;99.90;;;;;;5028675;28;20711;-85
2023/09/01 11:12:02;;;;;;;2.88;1.63;;;18.20;99.90;;;;;;5027012;28;20193;-84
2023/09/01 11:14:35;;;;;;;1.83;1.50;;;18.10;99.90;;;;;;5027532;28;20627;-84
2023/09/01 11:17:03;;;;;;;2.03;1.38;;;18.10;99.90;;;;;;5027285;28;20242;-84
2023/09/01 11:19:47;;;;;;;1.83;1.40;;;18.30;99.90;;;;;;5027551;28;20189;-85
2023/09/01 11:22:15;;;;;;;2.60;1.50;;;18.20;99.90;;;;;;5028008;28;20218;-84
2023/09/01 11:24:46;;;;;;;2.00;1.30;;;18.10;99.90;;;;;;5038297;28;20193;-84
2023/09/01 11:27:13;;;;;;;3.20;1.42;;;18.20;99.90;;;;;;5047153;28;20248;-84
2023/09/01 11:29:41;;;;;;;1.50;1.10;;;18.30;99.90;;;;;;5038201;28;20227;-84
2023/09/01 11:32:09;;;;;;;3.13;1.50;;;18.40;99.90;;;;;;5026930;28;20285;-84
2023/09/01 11:34:38;;;;;;;4.30;1.30;;;18.50;99.90;;;;;;5037817;28;20220;-84
2023/09/01 11:37:05;;;;;;;1.42;1.33;;;18.30;99.90;;;;;;5038752;28;20189;-84
2023/09/01 11:39:33;;;;;;;2.45;1.38;;;18.20;99.90;;;;;;5033296;28;20735;-84
2023/09/01 11:42:01;;;;;;;3.55;1.40;;;18.20;99.90;;;;;;5036958;28;20201;-84
2023/09/01 11:44:31;;;;;;;4.32;1.50;;;18.30;99.90;;;;;;5037121;28;20768;-85
2023/09/01 11:46:58;;;;;;;3.45;1.20;;;18.50;99.90;;;;;;5034752;28;20246;-84
2023/09/01 11:49:26;;;;;;;1.58;1.20;;;18.60;99.90;;;;;;5036719;28;20187;-83
2023/09/01 11:51:59;;;;;;;2.83;1.50;;;18.40;99.90;;;;;;5029435;28;20675;-83
2023/09/01 11:54:42;;;;;;;1.60;1.20;;;18.60;99.90;;;;;;5034915;28;20536;-84
2023/09/01 11:57:13;;;;;;;2.33;1.08;;;18.80;99.90;;;;;;5031495;28;20190;-84
2023/09/01 11:59:48;;;;;;;1.85;1.13;;;18.80;99.90;;;;;;5040769;28;20189;-84
2023/09/01 12:02:20;;;;;;;4.38;1.73;;;18.70;99.90;;;;;;5034452;28;20545;-84
2023/09/01 12:04:50;;;;;;;2.17;1.40;;;19.00;99.90;;;;;;5033949;28;20276;-84
2023/09/01 12:07:22;;;;;;;2.78;1.27;;;18.80;99.90;;;;;;5036613;28;20589;-84
2023/09/01 12:09:50;;;;;;;3.88;1.40;;;18.30;99.90;;;;;;5035769;28;20186;-84
2023/09/01 12:12:18;;;;;;;2.08;1.38;;;18.10;99.90;;;;;;5039387;28;20232;-85
2023/09/01 12:14:46;;;;;;;2.35;1.45;;;17.90;99.90;;;;;;5032443;28;20651;-85
2023/09/01 12:17:18;;;;;;;3.35;1.30;;;18.10;99.90;;;;;;5034061;28;20222;-84
2023/09/01 12:19:51;;;;;;;2.42;1.30;;;18.50;99.90;;;;;;5041478;28;20197;-85
2023/09/01 12:22:20;;;;;;;5.13;1.60;;;18.70;99.90;;;;;;5035942;28;20205;-84
2023/09/01 12:24:55;;;;;;;3.03;1.35;;;18.90;99.90;;;;;;5034154;28;20190;-84
2023/09/01 12:27:23;;;;;;;7.70;1.80;;;18.80;99.90;;;;;;5030792;28;20185;-84
2023/09/01 12:29:51;;;;;;;1.33;1.15;;;18.90;99.90;;;;;;5038638;28;20851;-83
2023/09/01 12:32:19;;;;;;;3.60;1.25;;;18.70;99.90;;;;;;5035495;28;20193;-83
2023/09/01 12:34:47;;;;;;;4.85;1.30;;;18.60;99.90;;;;;;5037962;28;20197;-83
2023/09/01 12:37:15;;;;;;;1.73;1.10;;;18.50;99.90;;;;;;5027014;28;20226;-83
2023/09/01 12:39:43;;;;;;;2.13;1.20;;;18.30;99.90;;;;;;5041206;28;20288;-84
2023/09/01 12:42:10;;;;;;;2.17;1.15;;;18.20;99.90;;;;;;5034188;28;20209;-85
2023/09/01 12:44:39;;;;;;;1.30;1.17;;;18.40;99.90;;;;;;5035239;28;20243;-84
2023/09/01 12:47:06;;;;;;;2.65;1.45;;;18.70;99.90;;;;;;5039917;28;20196;-84
2023/09/01 12:49:36;;;;;;;3.42;1.40;;;19.00;99.90;;;;;;5032643;28;20206;-84
2023/09/01 12:52:04;;;;;;;1.23;1.08;;;19.30;99.90;;;;;;5035577;28;20208;-84
2023/09/01 12:54:32;;;;;;;2.47;1.60;;;19.30;99.90;;;;;;5039835;28;20674;-85
2023/09/01 12:56:59;;;;;;;4.20;1.23;;;19.00;99.90;;;;;;5033553;28;20503;-84